Terminal Aerodrome Forecast
Issued by NWS

Home | Current Version | Previous Version | Graphics & Text | Print | Product List | Glossary On
Versions: 1 2 3 4 5 6 7 8 9 10 11 12 13 14 15 16 17
000
FTUS43 KGRB 171125
TAFCWA
TAF
KCWA 171125Z 1712/1812 30009KT P6SM SCT015 BKN025
      TEMPO 1712/1716 -SN BKN015
     FM171600 33011G15KT P6SM BKN018
     FM171900 33009KT P6SM BKN022
     FM172300 35007KT P6SM SCT025
     FM180900 04005KT P6SM BKN060=

USA.gov is the U.S. government's official web portal to all federal, state and local government web resources and services.